createdAt,value
2023-04-27T00:02:16.586Z,4.93
2023-04-27T00:04:44.899Z,5.10
2023-04-27T00:07:12.996Z,5.00
2023-04-27T00:09:41.021Z,4.87
2023-04-27T00:12:09.025Z,5.57
2023-04-27T00:14:36.984Z,5.97
2023-04-27T00:17:04.815Z,5.00
2023-04-27T00:19:34.799Z,4.90
2023-04-27T00:22:02.649Z,4.43
2023-04-27T00:24:30.589Z,5.90
2023-04-27T00:26:58.449Z,5.53
2023-04-27T00:29:27.440Z,5.07
2023-04-27T00:31:55.405Z,4.77
2023-04-27T00:34:23.497Z,5.10
2023-04-27T00:36:53.003Z,4.90
2023-04-27T00:39:20.858Z,4.80
2023-04-27T00:41:48.983Z,4.67
2023-04-27T00:44:23.963Z,4.97
2023-04-27T00:46:52.360Z,4.40
2023-04-27T00:49:21.052Z,4.60
2023-04-27T00:51:49.151Z,5.80
2023-04-27T00:54:21.249Z,5.47
2023-04-27T00:56:50.080Z,4.90
2023-04-27T00:59:18.081Z,5.10
2023-04-27T01:01:46.274Z,5.80
2023-04-27T01:04:14.539Z,4.93
2023-04-27T01:06:42.456Z,4.93
2023-04-27T01:09:11.272Z,5.07
2023-04-27T01:11:40.558Z,5.13
2023-04-27T01:14:09.141Z,5.67
2023-04-27T01:16:37.483Z,5.37
2023-04-27T01:19:05.902Z,5.33
2023-04-27T01:21:33.772Z,5.47
2023-04-27T01:24:03.142Z,5.47
2023-04-27T01:26:31.006Z,5.43
2023-04-27T01:28:59.331Z,6.27
2023-04-27T01:31:27.410Z,6.10
2023-04-27T01:33:55.461Z,5.67
2023-04-27T01:36:23.349Z,6.07
2023-04-27T01:38:51.695Z,6.37
2023-04-27T01:41:20.915Z,5.70
2023-04-27T01:43:48.991Z,5.97
2023-04-27T01:46:16.931Z,6.47
2023-04-27T01:48:44.966Z,5.70
2023-04-27T01:51:13.110Z,5.93
2023-04-27T01:53:43.369Z,5.07
2023-04-27T01:56:11.358Z,5.43
2023-04-27T01:58:40.626Z,5.53
2023-04-27T02:01:08.492Z,5.43
2023-04-27T02:03:36.648Z,5.83
2023-04-27T02:06:04.948Z,5.50
2023-04-27T02:08:32.793Z,5.73
2023-04-27T02:11:00.636Z,5.90
2023-04-27T02:13:28.459Z,5.60
2023-04-27T02:15:57.731Z,5.90
2023-04-27T02:18:25.543Z,5.63
2023-04-27T02:20:53.371Z,6.43
2023-04-27T02:23:21.212Z,6.00
2023-04-27T02:25:49.093Z,6.60
2023-04-27T02:28:17.217Z,6.70
2023-04-27T02:30:45.785Z,7.03
2023-04-27T02:33:15.095Z,6.90
2023-04-27T02:35:42.932Z,6.53
2023-04-27T02:38:11.387Z,7.70
2023-04-27T02:40:39.351Z,7.00
2023-04-27T02:43:07.187Z,6.50
2023-04-27T02:45:38.308Z,6.93
2023-04-27T02:48:06.600Z,6.77
2023-04-27T02:50:35.864Z,7.53
2023-04-27T02:53:03.721Z,7.33
2023-04-27T02:55:31.922Z,7.73
2023-04-27T02:57:59.790Z,6.93
2023-04-27T03:00:27.767Z,7.57
2023-04-27T03:02:56.247Z,7.53
2023-04-27T03:05:26.639Z,7.93
2023-04-27T03:07:56.201Z,7.93
2023-04-27T03:10:24.084Z,7.40
2023-04-27T03:12:51.953Z,8.20
2023-04-27T03:15:19.924Z,7.13
2023-04-27T03:17:47.931Z,7.57
2023-04-27T03:20:16.292Z,7.20
2023-04-27T03:22:45.926Z,7.23
2023-04-27T03:25:15.578Z,9.13
2023-04-27T03:27:43.694Z,8.90
2023-04-27T03:30:12.867Z,11.30
2023-04-27T03:32:40.754Z,13.70
2023-04-27T03:35:09.824Z,13.10
2023-04-27T03:37:37.663Z,12.27
2023-04-27T03:40:07.496Z,9.23
2023-04-27T03:42:36.675Z,8.60
2023-04-27T03:45:05.840Z,8.37
2023-04-27T03:47:33.742Z,8.60
2023-04-27T03:50:01.581Z,7.30
2023-04-27T03:52:29.462Z,8.73
2023-04-27T03:54:57.346Z,7.53
2023-04-27T03:57:25.228Z,6.77
2023-04-27T03:59:54.336Z,7.40
2023-04-27T04:02:23.472Z,7.33
2023-04-27T04:04:51.802Z,7.80
2023-04-27T04:07:19.957Z,7.40
2023-04-27T04:09:47.846Z,8.17
2023-04-27T04:12:15.770Z,7.70
2023-04-27T04:14:49.043Z,7.33
2023-04-27T04:17:20.212Z,8.20
2023-04-27T04:19:48.093Z,7.57
2023-04-27T04:22:16.076Z,7.03
2023-04-27T04:24:44.004Z,7.13
2023-04-27T04:27:12.030Z,7.17
2023-04-27T04:29:40.716Z,6.73
2023-04-27T04:32:09.556Z,7.53
2023-04-27T04:34:38.767Z,6.40
2023-04-27T04:37:06.749Z,7.73
2023-04-27T04:39:34.833Z,7.03
2023-04-27T04:42:04.125Z,6.97
2023-04-27T04:44:32.547Z,6.97
2023-04-27T04:47:00.468Z,6.87
2023-04-27T04:49:28.398Z,7.07
2023-04-27T04:51:57.700Z,6.20
2023-04-27T04:54:25.480Z,6.93
2023-04-27T04:56:53.341Z,7.03
2023-04-27T04:59:21.237Z,7.40
2023-04-27T05:01:49.173Z,6.57
2023-04-27T05:04:18.795Z,6.43
2023-04-27T05:06:47.102Z,6.50
2023-04-27T05:09:16.289Z,6.47
2023-04-27T05:11:44.257Z,6.40
2023-04-27T05:14:12.415Z,7.30
2023-04-27T05:16:40.389Z,6.03
2023-04-27T05:19:08.855Z,6.63
2023-04-27T05:21:36.735Z,6.07
2023-04-27T05:24:05.301Z,5.83
2023-04-27T05:26:35.002Z,6.07
2023-04-27T05:29:02.882Z,5.87
2023-04-27T05:31:30.715Z,7.30
2023-04-27T05:33:58.593Z,6.27
2023-04-27T05:36:27.264Z,6.20
2023-04-27T05:38:55.252Z,6.70
2023-04-27T05:41:23.828Z,6.87
2023-04-27T05:43:53.659Z,6.43
2023-04-27T05:46:22.106Z,5.90
2023-04-27T05:48:50.114Z,7.00
2023-04-27T05:51:18.086Z,6.33
2023-04-27T05:53:46.668Z,5.80
2023-04-27T05:56:14.709Z,6.57
2023-04-27T05:58:42.655Z,6.50
2023-04-27T06:01:12.745Z,6.37
2023-04-27T06:03:40.922Z,6.47
2023-04-27T06:06:09.018Z,6.25
2023-04-27T06:08:37.584Z,6.25
2023-04-27T06:11:05.886Z,6.68
2023-04-27T06:13:34.169Z,6.40
2023-04-27T06:16:02.513Z,6.75
2023-04-27T06:18:32.572Z,6.38
2023-04-27T06:21:02.073Z,6.82
2023-04-27T06:23:30.383Z,6.43
2023-04-27T06:25:58.927Z,6.97
2023-04-27T06:28:27.314Z,6.68
2023-04-27T06:30:55.702Z,7.13
2023-04-27T06:33:23.613Z,6.60
2023-04-27T06:35:52.781Z,6.85
2023-04-27T06:38:20.755Z,6.15
2023-04-27T06:40:52.716Z,6.20
2023-04-27T06:43:20.737Z,6.45
2023-04-27T06:45:48.673Z,7.13
2023-04-27T06:48:17.056Z,5.93
2023-04-27T06:50:44.966Z,6.55
2023-04-27T06:53:14.352Z,5.45
2023-04-27T06:55:45.021Z,6.38
2023-04-27T06:58:14.266Z,6.22
2023-04-27T07:00:42.273Z,7.22
2023-04-27T07:03:10.439Z,6.57
2023-04-27T07:05:38.451Z,6.22
2023-04-27T07:08:08.566Z,7.00
2023-04-27T07:10:38.453Z,5.50
2023-04-27T07:13:08.873Z,6.10
2023-04-27T07:15:37.308Z,5.85
2023-04-27T07:18:05.524Z,6.40
2023-04-27T07:20:33.799Z,4.97
2023-04-27T07:23:01.663Z,4.80
2023-04-27T07:25:29.698Z,4.55
2023-04-27T07:27:59.762Z,6.00
2023-04-27T07:30:31.041Z,5.32
2023-04-27T07:33:00.971Z,5.13
2023-04-27T07:35:29.205Z,4.60
2023-04-27T07:37:57.878Z,4.03
2023-04-27T07:40:25.777Z,4.03
2023-04-27T07:42:53.795Z,4.50
2023-04-27T07:45:23.361Z,4.10
2023-04-27T07:47:52.191Z,4.22
2023-04-27T07:50:24.495Z,4.47
2023-04-27T07:52:52.402Z,4.43
2023-04-27T07:55:21.586Z,4.05
2023-04-27T07:57:49.428Z,4.03
2023-04-27T08:00:17.992Z,3.67
2023-04-27T08:02:47.461Z,3.72
2023-04-27T08:05:16.135Z,4.05
2023-04-27T08:07:45.432Z,4.97
2023-04-27T08:10:14.019Z,4.80
2023-04-27T08:12:42.097Z,4.85
2023-04-27T08:15:11.552Z,4.60
2023-04-27T08:17:41.099Z,4.50
2023-04-27T08:20:12.567Z,4.40
2023-04-27T08:22:40.576Z,4.68
2023-04-27T08:25:09.211Z,5.50
2023-04-27T08:27:40.126Z,5.03
2023-04-27T08:30:09.350Z,5.07
2023-04-27T08:32:37.235Z,4.53
2023-04-27T08:35:05.650Z,4.70
2023-04-27T08:37:35.017Z,4.78
2023-04-27T08:40:06.196Z,4.70
2023-04-27T08:42:34.088Z,3.63
2023-04-27T08:45:02.177Z,4.60
2023-04-27T08:47:41.960Z,4.38
2023-04-27T08:50:12.535Z,4.80
2023-04-27T08:52:41.871Z,4.75
2023-04-27T08:55:10.309Z,4.20
2023-04-27T08:57:38.240Z,4.13
2023-04-27T09:00:13.398Z,4.37
2023-04-27T09:02:48.306Z,4.83
2023-04-27T09:05:19.847Z,3.83
2023-04-27T09:08:05.845Z,3.43
2023-04-27T09:10:45.459Z,4.03
2023-04-27T09:13:13.440Z,4.10
2023-04-27T09:15:47.106Z,3.50
2023-04-27T09:18:18.412Z,3.60
2023-04-27T09:20:47.043Z,3.50
2023-04-27T09:23:28.993Z,3.83
2023-04-27T09:25:57.170Z,3.33
2023-04-27T09:28:27.616Z,3.80
2023-04-27T09:30:56.994Z,3.30
2023-04-27T09:33:26.085Z,4.20
2023-04-27T09:35:54.898Z,3.87
2023-04-27T09:38:23.929Z,3.67
2023-04-27T09:40:54.940Z,3.67
2023-04-27T09:43:23.430Z,4.37
2023-04-27T09:45:51.606Z,4.50
2023-04-27T09:48:19.593Z,3.87
2023-04-27T09:50:48.168Z,3.63
2023-04-27T09:53:18.565Z,3.70
2023-04-27T09:55:55.789Z,3.80
2023-04-27T09:58:49.292Z,3.30
2023-04-27T10:01:28.022Z,3.00
2023-04-27T10:04:13.114Z,3.10
2023-04-27T10:07:01.611Z,2.83
2023-04-27T10:09:37.271Z,2.70
2023-04-27T10:12:19.833Z,2.43
2023-04-27T10:14:53.944Z,2.23
2023-04-27T10:17:27.104Z,2.27
2023-04-27T10:19:58.450Z,2.10
2023-04-27T10:22:39.350Z,1.80
2023-04-27T10:25:16.616Z,2.20
2023-04-27T10:27:44.489Z,1.90
2023-04-27T10:30:15.114Z,2.67
2023-04-27T10:32:52.616Z,1.77
2023-04-27T10:35:22.544Z,1.60
2023-04-27T10:37:52.169Z,2.00
2023-04-27T10:40:20.059Z,1.97
2023-04-27T10:42:49.814Z,2.17
2023-04-27T10:45:31.741Z,1.97
2023-04-27T10:48:01.604Z,2.20
2023-04-27T10:50:29.951Z,2.20
2023-04-27T10:53:01.838Z,2.00
2023-04-27T10:55:29.983Z,2.77
2023-04-27T10:57:59.214Z,2.17
2023-04-27T11:00:30.492Z,2.70
2023-04-27T11:03:10.766Z,2.67
2023-04-27T11:05:38.808Z,3.20
2023-04-27T11:08:08.425Z,2.33
2023-04-27T11:10:37.115Z,3.13
2023-04-27T11:13:09.953Z,2.27
2023-04-27T11:15:47.313Z,2.53
2023-04-27T11:18:15.965Z,2.40
2023-04-27T11:20:44.896Z,2.50
2023-04-27T11:23:13.039Z,2.20
2023-04-27T11:25:41.394Z,2.00
2023-04-27T11:28:18.488Z,1.83
2023-04-27T11:30:49.390Z,1.90
2023-04-27T11:33:17.387Z,2.20
2023-04-27T11:35:45.221Z,2.30
2023-04-27T11:38:23.593Z,1.40
2023-04-27T11:41:01.474Z,2.03
2023-04-27T11:43:30.166Z,1.93
2023-04-27T11:45:59.822Z,1.93
2023-04-27T11:48:29.506Z,1.60
2023-04-27T11:51:01.365Z,1.70
2023-04-27T11:53:33.294Z,2.10
2023-04-27T11:56:02.457Z,1.60
2023-04-27T11:58:30.963Z,1.87
2023-04-27T12:01:00.233Z,1.80
2023-04-27T12:03:29.934Z,1.67
2023-04-27T12:06:11.627Z,2.00
2023-04-27T12:08:46.294Z,1.90
2023-04-27T12:11:15.112Z,1.90
2023-04-27T12:13:43.065Z,1.83
2023-04-27T12:16:12.414Z,1.93
2023-04-27T12:18:40.230Z,1.90
2023-04-27T12:21:08.485Z,1.40
2023-04-27T12:23:36.608Z,1.67
2023-04-27T12:26:04.415Z,1.80
2023-04-27T12:28:32.386Z,1.63
2023-04-27T12:31:00.346Z,1.50
2023-04-27T12:33:29.870Z,1.60
2023-04-27T12:35:57.864Z,1.60
2023-04-27T12:38:25.784Z,1.50
2023-04-27T12:40:53.706Z,1.87
2023-04-27T12:43:21.532Z,1.80
2023-04-27T12:45:49.595Z,1.97
2023-04-27T12:48:17.964Z,1.50
2023-04-27T12:50:47.468Z,1.60
2023-04-27T12:53:15.396Z,1.50
2023-04-27T12:55:43.221Z,1.60
2023-04-27T12:58:11.201Z,1.50
2023-04-27T13:00:39.081Z,1.90
2023-04-27T13:03:07.855Z,1.77
2023-04-27T13:05:35.916Z,1.77
2023-04-27T13:08:05.776Z,1.70
2023-04-27T13:10:33.706Z,2.17
2023-04-27T13:13:01.807Z,2.07
2023-04-27T13:15:29.881Z,1.67
2023-04-27T13:17:59.102Z,1.70
2023-04-27T13:20:27.188Z,1.73
2023-04-27T13:22:55.026Z,1.73
2023-04-27T13:25:24.646Z,2.00
2023-04-27T13:27:53.983Z,1.63
2023-04-27T13:30:22.000Z,1.90
2023-04-27T13:32:50.346Z,2.00
2023-04-27T13:35:18.320Z,1.50
2023-04-27T13:37:46.345Z,1.40
2023-04-27T13:40:14.503Z,1.87
2023-04-27T13:42:43.820Z,1.70
2023-04-27T13:45:12.207Z,2.00
2023-04-27T13:47:40.947Z,1.50
2023-04-27T13:50:10.834Z,1.63
2023-04-27T13:52:40.353Z,1.73
2023-04-27T13:55:10.864Z,1.97
2023-04-27T13:57:39.045Z,1.67
2023-04-27T14:00:11.532Z,1.97
2023-04-27T14:02:40.202Z,1.60
2023-04-27T14:05:09.012Z,1.93
2023-04-27T14:07:37.086Z,1.80
2023-04-27T14:10:05.363Z,1.90
2023-04-27T14:12:33.467Z,1.80
2023-04-27T14:15:01.455Z,1.53
2023-04-27T14:17:30.939Z,1.60
2023-04-27T14:19:59.020Z,1.53
2023-04-27T14:22:27.017Z,1.47
2023-04-27T14:24:56.531Z,1.67
2023-04-27T14:27:24.730Z,1.60
2023-04-27T14:29:52.687Z,1.17
2023-04-27T14:32:21.342Z,1.30
2023-04-27T14:34:50.967Z,1.57
2023-04-27T14:37:18.843Z,1.60
2023-04-27T14:39:47.103Z,1.60
2023-04-27T14:42:15.010Z,1.40
2023-04-27T14:44:42.861Z,1.50
2023-04-27T14:47:10.813Z,1.97
2023-04-27T14:49:38.973Z,1.70
2023-04-27T14:52:08.271Z,2.00
2023-04-27T14:54:38.487Z,1.70
2023-04-27T14:57:06.467Z,1.87
2023-04-27T14:59:35.036Z,1.90
2023-04-27T15:02:03.261Z,1.70
2023-04-27T15:04:31.247Z,1.57
2023-04-27T15:06:59.148Z,1.70
2023-04-27T15:09:28.569Z,2.00
2023-04-27T15:11:56.524Z,1.70
2023-04-27T15:14:24.436Z,2.00
2023-04-27T15:16:52.830Z,1.60
2023-04-27T15:19:20.722Z,1.70
2023-04-27T15:21:49.274Z,2.30
2023-04-27T15:24:17.166Z,2.00
2023-04-27T15:26:48.054Z,1.80
2023-04-27T15:29:16.171Z,2.00
2023-04-27T15:31:44.449Z,1.83
2023-04-27T15:34:12.721Z,2.10
2023-04-27T15:36:40.773Z,2.27
2023-04-27T15:39:10.104Z,1.97
2023-04-27T15:41:38.270Z,2.40
2023-04-27T15:44:08.066Z,2.37
2023-04-27T15:46:36.523Z,2.40
2023-04-27T15:49:04.792Z,2.30
2023-04-27T15:51:32.648Z,3.17
2023-04-27T15:54:00.552Z,2.07
2023-04-27T15:56:30.580Z,2.53
2023-04-27T15:58:58.739Z,2.30
2023-04-27T16:01:28.003Z,2.93
2023-04-27T16:03:56.764Z,2.40
2023-04-27T16:06:32.083Z,2.33
2023-04-27T16:09:00.223Z,2.43
2023-04-27T16:11:28.435Z,2.70
2023-04-27T16:13:56.755Z,2.53
2023-04-27T16:16:24.898Z,2.70
2023-04-27T16:18:54.266Z,3.07
2023-04-27T16:21:23.458Z,3.07
2023-04-27T16:23:51.744Z,3.10
2023-04-27T16:26:19.932Z,2.63
2023-04-27T16:28:48.156Z,2.93
2023-04-27T16:31:16.260Z,2.90
2023-04-27T16:33:44.156Z,2.77
2023-04-27T16:36:13.382Z,2.67
2023-04-27T16:38:41.240Z,2.97
2023-04-27T16:41:09.415Z,2.50
2023-04-27T16:43:37.298Z,2.10
2023-04-27T16:46:06.447Z,2.40
2023-04-27T16:48:34.358Z,2.53
2023-04-27T16:51:02.249Z,2.47
2023-04-27T16:53:31.752Z,2.43
2023-04-27T16:56:01.388Z,2.20
2023-04-27T16:58:30.145Z,3.03
2023-04-27T17:00:58.204Z,2.83
2023-04-27T17:03:26.542Z,2.40
2023-04-27T17:05:54.786Z,2.73
2023-04-27T17:08:22.967Z,2.53
2023-04-27T17:10:52.300Z,2.50
2023-04-27T17:13:20.746Z,2.33
2023-04-27T17:15:48.789Z,2.30
2023-04-27T17:18:16.801Z,2.40
2023-04-27T17:20:44.954Z,2.77
2023-04-27T17:23:12.995Z,2.97
2023-04-27T17:25:41.521Z,2.67
2023-04-27T17:28:10.876Z,3.30
2023-04-27T17:30:39.044Z,3.13
2023-04-27T17:33:07.091Z,3.20
2023-04-27T17:35:35.201Z,3.20
2023-04-27T17:38:03.271Z,3.00
2023-04-27T17:40:32.157Z,3.47
2023-04-27T17:43:00.287Z,3.43
2023-04-27T17:45:29.872Z,3.30
2023-04-27T17:47:57.955Z,3.17
2023-04-27T17:50:26.517Z,3.10
2023-04-27T17:52:54.709Z,2.97
2023-04-27T17:55:23.248Z,3.23
2023-04-27T17:57:51.707Z,3.83
2023-04-27T18:00:20.081Z,4.23
2023-04-27T18:02:50.104Z,3.40
2023-04-27T18:05:18.522Z,3.70
2023-04-27T18:07:47.304Z,3.53
2023-04-27T18:10:15.335Z,3.77
2023-04-27T18:12:43.426Z,3.10
2023-04-27T18:15:12.011Z,3.37
2023-04-27T18:17:40.311Z,3.83
2023-04-27T18:20:11.337Z,4.00
2023-04-27T18:22:40.631Z,3.70
2023-04-27T18:25:10.283Z,3.67
2023-04-27T18:27:38.507Z,3.87
2023-04-27T18:30:08.867Z,3.90
2023-04-27T18:32:36.968Z,3.60
2023-04-27T18:35:05.801Z,3.60
2023-04-27T18:37:35.231Z,3.43
2023-04-27T18:40:06.068Z,3.67
2023-04-27T18:42:34.156Z,3.60
2023-04-27T18:45:02.162Z,4.00
2023-04-27T18:47:30.186Z,3.87
2023-04-27T18:49:58.178Z,4.10
2023-04-27T18:52:26.297Z,3.53
2023-04-27T18:54:55.587Z,4.03
2023-04-27T18:57:23.473Z,4.07
2023-04-27T18:59:51.347Z,3.67
2023-04-27T19:02:19.806Z,4.30
2023-04-27T19:04:53.050Z,3.87
2023-04-27T19:07:25.210Z,4.07
2023-04-27T19:09:54.940Z,4.27
2023-04-27T19:12:24.348Z,4.57
2023-04-27T19:14:52.423Z,4.40
2023-04-27T19:17:20.788Z,4.30
2023-04-27T19:19:48.738Z,4.33
2023-04-27T19:22:16.656Z,5.27
2023-04-27T19:24:44.570Z,4.20
2023-04-27T19:27:12.594Z,4.97
2023-04-27T19:29:52.985Z,4.97
2023-04-27T19:32:21.691Z,4.57
2023-04-27T19:34:50.121Z,4.17
2023-04-27T19:37:17.969Z,4.87
2023-04-27T19:39:45.929Z,4.50
2023-04-27T19:42:14.150Z,4.93
2023-04-27T19:44:42.145Z,5.00
2023-04-27T19:47:11.897Z,6.23
2023-04-27T19:49:40.002Z,5.63
2023-04-27T19:52:08.376Z,5.30
2023-04-27T19:54:38.364Z,6.37
2023-04-27T19:57:06.813Z,6.20
2023-04-27T19:59:34.687Z,6.30
2023-04-27T20:02:02.604Z,7.07
2023-04-27T20:04:33.089Z,7.00
2023-04-27T20:07:02.164Z,6.90
2023-04-27T20:09:31.168Z,6.50
2023-04-27T20:11:59.105Z,7.23
2023-04-27T20:14:29.105Z,6.53
2023-04-27T20:16:56.974Z,6.77
2023-04-27T20:19:25.345Z,6.57
2023-04-27T20:21:54.577Z,6.37
2023-04-27T20:24:23.478Z,6.67
2023-04-27T20:26:51.364Z,6.20
2023-04-27T20:29:19.312Z,7.20
2023-04-27T20:31:48.532Z,6.47
2023-04-27T20:34:16.785Z,6.73
2023-04-27T20:36:44.759Z,7.00
2023-04-27T20:39:15.303Z,7.27
2023-04-27T20:41:44.310Z,6.37
2023-04-27T20:44:13.219Z,6.20
2023-04-27T20:46:41.664Z,7.20
2023-04-27T20:49:09.707Z,6.47
2023-04-27T20:51:37.693Z,6.77
2023-04-27T20:54:05.973Z,6.47
2023-04-27T20:56:35.231Z,7.20
2023-04-27T20:59:03.250Z,6.77
2023-04-27T21:01:31.338Z,6.33
2023-04-27T21:03:59.861Z,7.33
2023-04-27T21:06:27.783Z,6.87
2023-04-27T21:08:55.791Z,7.43
2023-04-27T21:11:23.729Z,6.93
2023-04-27T21:13:53.682Z,7.90
2023-04-27T21:16:22.203Z,7.00
2023-04-27T21:18:50.104Z,7.90
2023-04-27T21:21:18.040Z,7.57
2023-04-27T21:23:48.156Z,6.57
2023-04-27T21:26:18.951Z,6.60
2023-04-27T21:28:47.226Z,6.70
2023-04-27T21:31:17.706Z,7.40
2023-04-27T21:33:47.189Z,7.30
2023-04-27T21:36:15.100Z,6.37
2023-04-27T21:38:43.183Z,7.30
2023-04-27T21:41:11.719Z,6.97
2023-04-27T21:43:41.968Z,8.00
2023-04-27T21:46:10.259Z,7.40
2023-04-27T21:48:39.626Z,8.53
2023-04-27T21:51:13.816Z,8.60
2023-04-27T21:53:41.701Z,9.17
2023-04-27T21:56:09.902Z,7.47
2023-04-27T21:58:37.835Z,9.27
2023-04-27T22:01:05.998Z,8.90
2023-04-27T22:03:34.389Z,8.63
2023-04-27T22:06:04.093Z,8.57
2023-04-27T22:08:32.003Z,9.40
2023-04-27T22:10:59.952Z,8.10
2023-04-27T22:13:28.021Z,8.20
2023-04-27T22:15:55.976Z,8.13
2023-04-27T22:18:23.847Z,8.33
2023-04-27T22:20:51.850Z,7.90
2023-04-27T22:23:21.238Z,8.33
2023-04-27T22:25:49.205Z,8.00
2023-04-27T22:28:17.154Z,8.23
2023-04-27T22:30:45.058Z,8.37
2023-04-27T22:33:13.246Z,8.00
2023-04-27T22:35:41.151Z,8.87
2023-04-27T22:38:09.139Z,8.27
2023-04-27T22:40:38.808Z,8.00
2023-04-27T22:43:06.639Z,8.63
2023-04-27T22:45:36.158Z,8.20
2023-04-27T22:48:06.684Z,9.30
2023-04-27T22:50:34.836Z,9.30
2023-04-27T22:53:03.713Z,8.37
2023-04-27T22:55:31.620Z,8.87
2023-04-27T22:58:00.803Z,8.90
2023-04-27T23:00:28.773Z,9.17
2023-04-27T23:02:56.669Z,8.77
2023-04-27T23:05:25.535Z,7.77
2023-04-27T23:07:53.372Z,8.80
2023-04-27T23:10:21.561Z,9.27
2023-04-27T23:12:50.766Z,9.00
2023-04-27T23:15:20.846Z,9.87
2023-04-27T23:17:48.690Z,9.33
2023-04-27T23:20:27.193Z,9.07
2023-04-27T23:22:55.799Z,9.57
2023-04-27T23:25:23.720Z,9.37
2023-04-27T23:27:52.459Z,10.60
2023-04-27T23:30:22.532Z,10.13
2023-04-27T23:32:50.570Z,10.40
2023-04-27T23:35:18.808Z,11.13
2023-04-27T23:37:46.640Z,11.47
2023-04-27T23:40:14.636Z,11.33
2023-04-27T23:42:42.598Z,11.50
2023-04-27T23:45:11.480Z,11.80
2023-04-27T23:47:40.973Z,11.17
2023-04-27T23:50:09.697Z,10.90
2023-04-27T23:52:37.733Z,11.23
2023-04-27T23:55:07.164Z,11.50
2023-04-27T23:57:35.054Z,11.17
